Weather

Ora Tempo Temperatura Umidità Vento Precipitazioni
06:00 overcast clouds 16.0° 65% 1.18 km/h 0 mm
09:00 overcast clouds 17.3° 62% 2.04 km/h 0 mm
12:00 overcast clouds 18.9° 59% 3.57 km/h 0 mm
15:00 overcast clouds 20.4° 58% 3 km/h 0 mm
18:00 overcast clouds 19.3° 68% 1.36 km/h 0 mm
21:00 overcast clouds 18.2° 69% 0.99 km/h 0 mm
Ora Tempo Temperatura Umidità Vento Precipitazioni
00:00 overcast clouds 18.1° 65% 1.99 km/h 0 mm
03:00 overcast clouds 17.4° 65% 3.14 km/h 0 mm
06:00 overcast clouds 17.8° 68% 5.79 km/h 0 mm
09:00 overcast clouds 17.6° 68% 6.13 km/h 0 mm
12:00 light rain 19.0° 62% 4.62 km/h 0.29 mm
15:00 broken clouds 20.5° 58% 2.28 km/h 0 mm
18:00 scattered clouds 19.3° 61% 3.99 km/h 0 mm
21:00 clear sky 16.2° 56% 4.28 km/h 0 mm
Ora Tempo Temperatura Umidità Vento Precipitazioni
00:00 scattered clouds 15.2° 59% 5.42 km/h 0 mm
03:00 scattered clouds 13.5° 66% 4.34 km/h 0 mm
06:00 few clouds 15.9° 62% 4.65 km/h 0 mm
09:00 clear sky 20.9° 47% 3.36 km/h 0 mm
12:00 clear sky 21.7° 48% 4.17 km/h 0 mm
15:00 few clouds 21.2° 53% 6.77 km/h 0 mm
18:00 few clouds 19.8° 64% 4.23 km/h 0 mm
21:00 clear sky 17.3° 65% 3.21 km/h 0 mm
Ora Tempo Temperatura Umidità Vento Precipitazioni
00:00 clear sky 16.1° 64% 2.29 km/h 0 mm
03:00 clear sky 14.9° 66% 2.94 km/h 0 mm
06:00 clear sky 16.4° 57% 2.76 km/h 0 mm
09:00 clear sky 20.4° 47% 0.23 km/h 0 mm
12:00 clear sky 20.3° 57% 4.76 km/h 0 mm
15:00 clear sky 20.9° 56% 3.51 km/h 0 mm
18:00 clear sky 19.4° 67% 1.39 km/h 0 mm
21:00 clear sky 17.8° 71% 1.04 km/h 0 mm
Ora Tempo Temperatura Umidità Vento Precipitazioni
00:00 clear sky 16.2° 71% 2.37 km/h 0 mm
03:00 scattered clouds 16.6° 69% 1.95 km/h 0 mm
06:00 broken clouds 17.8° 65% 2.07 km/h 0 mm
09:00 overcast clouds 19.8° 63% 2.99 km/h 0 mm
12:00 overcast clouds 20.7° 63% 3.89 km/h 0 mm
15:00 broken clouds 20.4° 69% 3.52 km/h 0 mm
18:00 broken clouds 19.7° 74% 1.11 km/h 0 mm
21:00 clear sky 18.0° 77% 1.3 km/h 0 mm
Ora Tempo Temperatura Umidità Vento Precipitazioni
00:00 few clouds 17.1° 73% 2.36 km/h 0 mm
03:00 few clouds 16.4° 72% 2.47 km/h 0 mm
Saturday 29 May
Temp. max: 20.4°
Temp. min: 16.0°
Ora Tempo Temperatura Umidità Vento Precipitazioni
06:00 overcast clouds 16.0° 65% 1.18 km/h 0 mm
09:00 overcast clouds 17.3° 62% 2.04 km/h 0 mm
12:00 overcast clouds 18.9° 59% 3.57 km/h 0 mm
15:00 overcast clouds 20.4° 58% 3 km/h 0 mm
18:00 overcast clouds 19.3° 68% 1.36 km/h 0 mm
21:00 overcast clouds 18.2° 69% 0.99 km/h 0 mm
Sunday 30 May
Temp. max: 20.5°
Temp. min: 16.2°
Ora Tempo Temperatura Umidità Vento Precipitazioni
00:00 overcast clouds 18.1° 65% 1.99 km/h 0 mm
03:00 overcast clouds 17.4° 65% 3.14 km/h 0 mm
06:00 overcast clouds 17.8° 68% 5.79 km/h 0 mm
09:00 overcast clouds 17.6° 68% 6.13 km/h 0 mm
12:00 light rain 19.0° 62% 4.62 km/h 0.29 mm
15:00 broken clouds 20.5° 58% 2.28 km/h 0 mm
18:00 scattered clouds 19.3° 61% 3.99 km/h 0 mm
21:00 clear sky 16.2° 56% 4.28 km/h 0 mm
Monday 31 May
Temp. max: 21.7°
Temp. min: 13.5°
Ora Tempo Temperatura Umidità Vento Precipitazioni
00:00 scattered clouds 15.2° 59% 5.42 km/h 0 mm
03:00 scattered clouds 13.5° 66% 4.34 km/h 0 mm
06:00 few clouds 15.9° 62% 4.65 km/h 0 mm
09:00 clear sky 20.9° 47% 3.36 km/h 0 mm
12:00 clear sky 21.7° 48% 4.17 km/h 0 mm
15:00 few clouds 21.2° 53% 6.77 km/h 0 mm
18:00 few clouds 19.8° 64% 4.23 km/h 0 mm
21:00 clear sky 17.3° 65% 3.21 km/h 0 mm
Tuesday 01 June
Temp. max: 20.9°
Temp. min: 14.9°
Ora Tempo Temperatura Umidità Vento Precipitazioni
00:00 clear sky 16.1° 64% 2.29 km/h 0 mm
03:00 clear sky 14.9° 66% 2.94 km/h 0 mm
06:00 clear sky 16.4° 57% 2.76 km/h 0 mm
09:00 clear sky 20.4° 47% 0.23 km/h 0 mm
12:00 clear sky 20.3° 57% 4.76 km/h 0 mm
15:00 clear sky 20.9° 56% 3.51 km/h 0 mm
18:00 clear sky 19.4° 67% 1.39 km/h 0 mm
21:00 clear sky 17.8° 71% 1.04 km/h 0 mm
Wednesday 02 June
Temp. max: 20.7°
Temp. min: 16.2°
Ora Tempo Temperatura Umidità Vento Precipitazioni
00:00 clear sky 16.2° 71% 2.37 km/h 0 mm
03:00 scattered clouds 16.6° 69% 1.95 km/h 0 mm
06:00 broken clouds 17.8° 65% 2.07 km/h 0 mm
09:00 overcast clouds 19.8° 63% 2.99 km/h 0 mm
12:00 overcast clouds 20.7° 63% 3.89 km/h 0 mm
15:00 broken clouds 20.4° 69% 3.52 km/h 0 mm
18:00 broken clouds 19.7° 74% 1.11 km/h 0 mm
21:00 clear sky 18.0° 77% 1.3 km/h 0 mm
Thursday 03 June
Temp. max: 17.1°
Temp. min: 16.4°
Ora Tempo Temperatura Umidità Vento Precipitazioni
00:00 few clouds 17.1° 73% 2.36 km/h 0 mm
03:00 few clouds 16.4° 72% 2.47 km/h 0 mm

Live Cam

VUOI RICEVERE PIÚ INFORMAZIONI SUI NOSTRI SERVIZI?

Usa la form di contatti sul sito o contattaci telefonicamente